createdAt,value
2022-08-23T00:01:25.158Z,56.98
2022-08-23T00:03:55.362Z,56.89
2022-08-23T00:06:25.074Z,56.91
2022-08-23T00:08:54.284Z,56.65
2022-08-23T00:11:27.397Z,56.63
2022-08-23T00:13:55.522Z,56.75
2022-08-23T00:16:25.101Z,56.84
2022-08-23T00:18:53.121Z,56.86
2022-08-23T00:21:21.048Z,57.12
2022-08-23T00:23:48.854Z,56.67
2022-08-23T00:26:16.397Z,57.12
2022-08-23T00:28:44.183Z,57.37
2022-08-23T00:31:25.132Z,57.54
2022-08-23T00:33:54.508Z,58.00
2022-08-23T00:36:23.406Z,58.02
2022-08-23T00:38:51.219Z,58.02
2022-08-23T00:41:21.231Z,58.33
2022-08-23T00:44:06.737Z,58.52
2022-08-23T00:47:02.586Z,58.53
2022-08-23T00:49:36.263Z,59.32
2022-08-23T00:52:12.080Z,59.59
2022-08-23T00:54:42.985Z,59.58
2022-08-23T00:57:14.325Z,60.25
2022-08-23T00:59:43.007Z,60.75
2022-08-23T01:02:13.625Z,60.70
2022-08-23T01:04:49.435Z,60.95
2022-08-23T01:07:27.350Z,61.06
2022-08-23T01:10:01.059Z,61.46
2022-08-23T01:12:35.864Z,61.55
2022-08-23T01:15:07.876Z,61.78
2022-08-23T01:17:41.577Z,62.21
2022-08-23T01:20:15.897Z,62.14
2022-08-23T01:22:58.450Z,62.25
2022-08-23T01:25:30.134Z,62.19
2022-08-23T01:27:59.424Z,62.55
2022-08-23T01:30:31.442Z,62.52
2022-08-23T01:33:03.267Z,62.50
2022-08-23T01:35:37.481Z,63.07
2022-08-23T01:38:05.986Z,62.97
2022-08-23T01:40:35.823Z,63.08
2022-08-23T01:43:04.106Z,63.63
2022-08-23T01:45:33.607Z,63.91
2022-08-23T01:48:02.664Z,64.02
2022-08-23T01:50:30.960Z,64.14
2022-08-23T01:52:59.599Z,64.31
2022-08-23T01:55:28.066Z,64.65
2022-08-23T01:58:02.065Z,64.75
2022-08-23T02:00:32.883Z,64.74
2022-08-23T02:03:02.584Z,64.76
2022-08-23T02:05:30.597Z,65.05
2022-08-23T02:08:19.116Z,64.90
2022-08-23T02:10:46.922Z,64.65
2022-08-23T02:13:15.830Z,65.40
2022-08-23T02:15:44.844Z,65.39
2022-08-23T02:18:13.459Z,65.27
2022-08-23T02:20:45.363Z,65.47
2022-08-23T02:23:13.667Z,65.74
2022-08-23T02:25:41.686Z,65.73
2022-08-23T02:28:09.997Z,65.84
2022-08-23T02:30:40.020Z,65.89
2022-08-23T02:33:08.317Z,66.11
2022-08-23T02:38:21.595Z,66.01
2022-08-23T02:40:52.987Z,66.30
2022-08-23T02:43:28.715Z,66.50
2022-08-23T02:45:57.923Z,66.59
2022-08-23T02:48:25.533Z,66.75
2022-08-23T02:50:53.446Z,66.83
2022-08-23T02:53:21.046Z,67.47
2022-08-23T02:55:49.165Z,67.27
2022-08-23T02:58:16.978Z,67.83
2022-08-23T03:00:47.796Z,67.82
2022-08-23T03:03:18.316Z,67.98
2022-08-23T03:05:46.612Z,68.31
2022-08-23T03:08:15.623Z,68.45
2022-08-23T03:10:44.436Z,68.61
2022-08-23T03:13:12.749Z,68.71
2022-08-23T03:15:41.057Z,68.77
2022-08-23T03:18:11.120Z,68.50
2022-08-23T03:20:41.472Z,68.67
2022-08-23T03:23:09.297Z,68.57
2022-08-23T03:25:37.791Z,68.83
2022-08-23T03:28:09.315Z,68.84
2022-08-23T03:30:37.471Z,69.07
2022-08-23T03:33:06.082Z,69.19
2022-08-23T03:35:33.795Z,69.36
2022-08-23T03:38:03.085Z,69.05
2022-08-23T03:40:30.914Z,69.46
2022-08-23T03:42:58.755Z,69.68
2022-08-23T03:45:26.338Z,70.36
2022-08-23T03:47:54.148Z,70.20
2022-08-23T03:50:22.262Z,70.00
2022-08-23T03:52:50.270Z,70.25
2022-08-23T03:55:19.881Z,70.10
2022-08-23T03:57:48.994Z,70.19
2022-08-23T04:00:20.382Z,70.28
2022-08-23T04:02:48.540Z,70.44
2022-08-23T04:05:16.134Z,70.28
2022-08-23T04:07:43.938Z,70.36
2022-08-23T04:10:14.962Z,70.23
2022-08-23T04:12:44.562Z,70.23
2022-08-23T04:15:13.493Z,70.09
2022-08-23T04:17:42.580Z,69.93
2022-08-23T04:20:11.094Z,70.22
2022-08-23T04:22:38.905Z,69.84
2022-08-23T04:25:14.097Z,70.82
2022-08-23T04:27:56.628Z,70.24
2022-08-23T04:30:24.366Z,70.42
2022-08-23T04:32:53.454Z,70.47
2022-08-23T04:35:22.377Z,70.40
2022-08-23T04:37:50.077Z,70.62
2022-08-23T04:40:36.086Z,70.57
2022-08-23T04:43:05.295Z,70.83
2022-08-23T04:45:33.509Z,69.96
2022-08-23T04:48:01.509Z,69.91
2022-08-23T04:50:29.429Z,69.32
2022-08-23T04:52:57.341Z,69.29
2022-08-23T04:55:24.958Z,69.58
2022-08-23T04:57:52.665Z,69.67
2022-08-23T05:00:22.480Z,69.61
2022-08-23T05:02:55.585Z,69.35
2022-08-23T05:05:23.528Z,69.39
2022-08-23T05:07:51.429Z,69.52
2022-08-23T05:10:18.960Z,69.16
2022-08-23T05:12:47.130Z,69.38
2022-08-23T05:15:15.020Z,68.59
2022-08-23T05:17:43.949Z,68.32
2022-08-23T05:20:12.161Z,68.22
2022-08-23T05:22:42.582Z,68.15
2022-08-23T05:25:11.101Z,67.55
2022-08-23T05:27:39.592Z,67.41
2022-08-23T05:30:08.428Z,67.15
2022-08-23T05:32:44.534Z,66.77
2022-08-23T05:35:12.330Z,66.47
2022-08-23T05:37:40.137Z,66.32
2022-08-23T05:40:08.325Z,65.88
2022-08-23T05:42:36.059Z,65.96
2022-08-23T05:45:06.237Z,65.41
2022-08-23T05:47:34.493Z,64.70
2022-08-23T05:50:07.034Z,64.02
2022-08-23T05:52:35.207Z,63.58
2022-08-23T05:55:03.020Z,62.54
2022-08-23T05:57:30.634Z,61.65
2022-08-23T05:59:58.540Z,61.11
2022-08-23T06:02:26.145Z,60.25
2022-08-23T06:04:57.245Z,59.86
2022-08-23T06:07:26.695Z,58.92
2022-08-23T06:09:55.494Z,58.75
2022-08-23T06:12:23.293Z,58.04
2022-08-23T06:14:51.120Z,57.49
2022-08-23T06:17:20.472Z,57.86
2022-08-23T06:19:48.023Z,57.29
2022-08-23T06:22:15.795Z,56.42
2022-08-23T06:24:45.057Z,55.47
2022-08-23T06:27:13.367Z,55.46
2022-08-23T06:29:41.466Z,55.20
2022-08-23T06:32:09.316Z,54.69
2022-08-23T06:34:38.897Z,54.82
2022-08-23T06:37:11.775Z,53.71
2022-08-23T06:39:40.216Z,53.50
2022-08-23T06:42:34.895Z,52.66
2022-08-23T06:44:59.335Z,51.51
2022-08-23T06:47:27.144Z,51.63
2022-08-23T06:49:57.727Z,51.59
2022-08-23T06:52:27.277Z,51.13
2022-08-23T06:54:55.178Z,50.75
2022-08-23T06:57:24.227Z,50.45
2022-08-23T06:59:52.012Z,50.49
2022-08-23T07:02:19.706Z,50.68
2022-08-23T07:04:53.741Z,50.04
2022-08-23T07:07:21.441Z,48.67
2022-08-23T07:09:49.056Z,47.10
2022-08-23T07:12:17.069Z,47.06
2022-08-23T07:14:46.274Z,46.82
2022-08-23T07:17:14.507Z,46.64
2022-08-23T07:19:44.020Z,46.23
2022-08-23T07:22:12.110Z,45.79
2022-08-23T07:24:39.833Z,45.61
2022-08-23T07:27:09.530Z,45.45
2022-08-23T07:29:39.538Z,45.96
2022-08-23T07:32:09.770Z,43.96
2022-08-23T07:34:37.760Z,43.42
2022-08-23T07:37:15.211Z,41.54
2022-08-23T07:39:43.951Z,39.21
2022-08-23T07:42:22.874Z,37.09
2022-08-23T07:44:52.710Z,34.69
2022-08-23T07:47:23.310Z,32.66
2022-08-23T07:49:53.529Z,30.84
2022-08-23T07:52:21.942Z,29.19
2022-08-23T07:54:49.777Z,27.08
2022-08-23T07:57:18.068Z,25.81
2022-08-23T07:59:45.974Z,24.55
2022-08-23T08:02:13.882Z,22.54
2022-08-23T08:04:44.000Z,22.15
2022-08-23T08:07:19.513Z,21.87
2022-08-23T08:09:48.514Z,22.20
2022-08-23T08:12:16.243Z,23.04
2022-08-23T08:14:44.132Z,21.53
2022-08-23T08:17:12.462Z,21.57
2022-08-23T08:19:41.554Z,21.77
2022-08-23T08:22:13.075Z,21.28
2022-08-23T08:24:40.990Z,19.91
2022-08-23T08:27:09.241Z,21.49
2022-08-23T08:29:37.015Z,20.39
2022-08-23T08:32:05.446Z,20.75
2022-08-23T08:34:33.225Z,20.48
2022-08-23T08:37:01.133Z,20.56
2022-08-23T08:39:33.917Z,20.78
2022-08-23T08:42:34.485Z,19.31
2022-08-23T08:45:05.666Z,18.28
2022-08-23T08:47:41.776Z,17.95
2022-08-23T08:50:18.011Z,17.88
2022-08-23T08:52:50.203Z,18.09
2022-08-23T08:55:23.429Z,18.28
2022-08-23T08:57:54.927Z,16.95
2022-08-23T09:00:26.247Z,16.26
2022-08-23T09:02:55.502Z,15.71
2022-08-23T09:05:27.266Z,15.14
2022-08-23T09:08:06.169Z,14.02
2022-08-23T09:11:00.185Z,14.34
2022-08-23T09:13:55.594Z,14.84
2022-08-23T09:16:33.005Z,14.18
2022-08-23T09:19:02.523Z,13.22
2022-08-23T09:21:38.943Z,13.13
2022-08-23T09:24:06.552Z,12.40
2022-08-23T09:26:35.808Z,12.62
2022-08-23T09:29:12.377Z,13.75
2022-08-23T09:31:43.100Z,15.29
2022-08-23T09:34:17.191Z,16.58
2022-08-23T09:36:45.094Z,14.82
2022-08-23T09:39:30.567Z,13.94
2022-08-23T09:42:00.731Z,15.44
2022-08-23T09:44:37.845Z,16.80
2022-08-23T09:47:11.761Z,14.74
2022-08-23T09:49:43.951Z,13.87
2022-08-23T09:52:22.772Z,12.41
2022-08-23T09:55:01.102Z,12.79
2022-08-23T09:57:32.657Z,12.00
2022-08-23T10:00:03.502Z,12.19
2022-08-23T10:02:35.115Z,12.06
2022-08-23T10:05:06.285Z,12.58
2022-08-23T10:07:42.449Z,12.73
2022-08-23T10:10:26.167Z,12.38
2022-08-23T10:12:58.984Z,11.30
2022-08-23T10:15:41.514Z,12.79
2022-08-23T10:18:18.879Z,13.03
2022-08-23T10:20:57.802Z,12.70
2022-08-23T10:23:41.811Z,12.76
2022-08-23T10:26:14.714Z,12.81
2022-08-23T10:29:09.528Z,13.15
2022-08-23T10:31:48.643Z,14.31
2022-08-23T10:34:30.045Z,12.62
2022-08-23T10:37:11.565Z,12.56
2022-08-23T10:39:48.998Z,13.71
2022-08-23T10:42:27.990Z,13.50
2022-08-23T10:45:04.898Z,12.77
2022-08-23T10:47:38.220Z,11.29
2022-08-23T10:50:09.825Z,10.42
2022-08-23T10:52:47.230Z,10.80
2022-08-23T10:55:34.943Z,10.80
2022-08-23T10:58:06.352Z,10.48
2022-08-23T11:00:37.774Z,10.44
2022-08-23T11:03:13.857Z,10.74
2022-08-23T11:05:43.086Z,11.13
2022-08-23T11:08:31.406Z,10.29
2022-08-23T11:10:59.529Z,10.11
2022-08-23T11:13:30.026Z,11.39
2022-08-23T11:16:01.878Z,10.91
2022-08-23T11:18:40.595Z,10.49
2022-08-23T11:21:30.669Z,9.66
2022-08-23T11:24:30.786Z,10.30
2022-08-23T11:27:06.964Z,12.36
2022-08-23T11:29:40.486Z,11.50
2022-08-23T11:32:33.210Z,10.64
2022-08-23T11:35:36.819Z,10.14
2022-08-23T11:38:07.403Z,10.71
2022-08-23T11:40:42.743Z,10.89
2022-08-23T11:43:21.652Z,11.23
2022-08-23T11:45:49.828Z,10.85
2022-08-23T11:48:25.974Z,9.66
2022-08-23T11:51:07.494Z,10.66
2022-08-23T11:53:56.109Z,10.10
2022-08-23T11:56:46.406Z,9.77
2022-08-23T11:59:30.126Z,11.23
2022-08-23T12:01:59.451Z,11.35
2022-08-23T12:04:38.946Z,10.95
2022-08-23T12:07:13.052Z,12.26
2022-08-23T12:09:57.875Z,12.26
2022-08-23T12:12:40.069Z,12.13
2022-08-23T12:15:12.071Z,12.61
2022-08-23T12:18:08.106Z,11.36
2022-08-23T12:20:38.467Z,10.59
2022-08-23T12:23:16.627Z,11.13
2022-08-23T12:25:44.946Z,10.67
2022-08-23T12:28:31.464Z,10.90
2022-08-23T12:31:11.509Z,10.84
2022-08-23T12:33:52.785Z,11.18
2022-08-23T12:36:31.086Z,10.30
2022-08-23T12:39:03.806Z,11.11
2022-08-23T12:41:36.708Z,11.34
2022-08-23T12:44:08.838Z,10.66
2022-08-23T12:46:39.712Z,10.84
2022-08-23T12:49:09.054Z,9.77
2022-08-23T12:51:49.536Z,10.22
2022-08-23T12:54:20.565Z,9.59
2022-08-23T12:56:50.194Z,10.29
2022-08-23T12:59:44.806Z,10.22
2022-08-23T13:02:19.443Z,10.45
2022-08-23T13:04:47.728Z,11.15
2022-08-23T13:07:23.124Z,11.56
2022-08-23T13:09:53.986Z,15.32
2022-08-23T13:12:24.106Z,15.20
2022-08-23T13:14:54.468Z,14.73
2022-08-23T13:17:32.976Z,14.52
2022-08-23T13:20:18.590Z,14.66
2022-08-23T13:23:01.227Z,14.88
2022-08-23T13:25:32.814Z,13.17
2022-08-23T13:28:03.414Z,12.52
2022-08-23T13:30:33.729Z,13.55
2022-08-23T13:33:25.449Z,11.65
2022-08-23T13:36:13.374Z,13.64
2022-08-23T13:38:44.360Z,12.81
2022-08-23T13:41:27.478Z,13.16
2022-08-23T13:43:55.997Z,13.00
2022-08-23T13:46:26.594Z,12.79
2022-08-23T13:49:01.419Z,12.92
2022-08-23T13:51:31.518Z,12.35
2022-08-23T13:54:03.442Z,13.62
2022-08-23T13:56:35.239Z,12.79
2022-08-23T13:59:06.151Z,12.95
2022-08-23T14:01:34.093Z,13.02
2022-08-23T14:04:03.235Z,12.88
2022-08-23T14:06:31.384Z,12.01
2022-08-23T14:09:00.406Z,13.93
2022-08-23T14:11:28.308Z,13.07
2022-08-23T14:13:56.134Z,12.75
2022-08-23T14:16:35.259Z,14.65
2022-08-23T14:19:17.981Z,16.72
2022-08-23T14:21:56.189Z,15.71
2022-08-23T14:24:26.956Z,15.90
2022-08-23T14:26:55.878Z,17.90
2022-08-23T14:29:24.783Z,18.13
2022-08-23T14:31:53.095Z,16.57
2022-08-23T14:34:21.399Z,16.71
2022-08-23T14:39:40.686Z,16.39
2022-08-23T14:42:09.338Z,16.66
2022-08-23T14:44:37.251Z,18.85
2022-08-23T14:47:05.964Z,18.94
2022-08-23T14:49:36.987Z,18.87
2022-08-23T14:52:04.991Z,18.78
2022-08-23T14:54:33.895Z,20.05
2022-08-23T14:57:03.105Z,20.30
2022-08-23T14:59:30.915Z,20.83
2022-08-23T15:01:59.134Z,21.53
2022-08-23T15:04:34.430Z,22.64
2022-08-23T15:07:19.308Z,22.99
2022-08-23T15:09:47.789Z,23.44
2022-08-23T15:15:06.589Z,24.58
2022-08-23T15:17:37.936Z,25.14
2022-08-23T15:20:07.009Z,25.55
2022-08-23T15:22:39.975Z,25.32
2022-08-23T15:25:13.954Z,25.36
2022-08-23T15:27:44.641Z,25.95
2022-08-23T15:30:14.450Z,26.33
2022-08-23T15:32:44.378Z,27.03
2022-08-23T15:35:20.813Z,26.92
2022-08-23T15:37:49.621Z,27.55
2022-08-23T15:40:17.855Z,27.73
2022-08-23T15:42:47.319Z,27.91
2022-08-23T15:45:15.232Z,27.84
2022-08-23T15:47:49.035Z,27.88
2022-08-23T15:50:20.354Z,28.26
2022-08-23T15:52:48.262Z,28.84
2022-08-23T15:55:16.562Z,29.06
2022-08-23T15:57:49.093Z,28.74
2022-08-23T16:00:19.793Z,29.36
2022-08-23T16:03:17.232Z,29.26
2022-08-23T16:05:37.515Z,29.01
2022-08-23T16:08:07.337Z,29.26
2022-08-23T16:10:35.642Z,29.64
2022-08-23T16:13:04.737Z,29.99
2022-08-23T16:15:32.473Z,29.87
2022-08-23T16:18:00.355Z,30.04
2022-08-23T16:20:28.078Z,30.30
2022-08-23T16:22:55.995Z,30.85
2022-08-23T16:25:24.192Z,31.03
2022-08-23T16:27:51.906Z,30.69
2022-08-23T16:30:21.121Z,31.20
2022-08-23T16:32:48.803Z,31.31
2022-08-23T16:35:17.834Z,31.13
2022-08-23T16:37:45.554Z,31.04
2022-08-23T16:40:14.583Z,31.33
2022-08-23T16:42:42.567Z,31.62
2022-08-23T16:45:11.478Z,31.67
2022-08-23T16:47:43.413Z,32.07
2022-08-23T16:50:13.521Z,32.14
2022-08-23T16:52:41.350Z,32.39
2022-08-23T16:55:12.429Z,32.66
2022-08-23T16:57:40.853Z,32.84
2022-08-23T17:00:11.848Z,32.83
2022-08-23T17:02:41.441Z,33.03
2022-08-23T17:05:12.484Z,33.34
2022-08-23T17:07:40.376Z,33.46
2022-08-23T17:10:10.207Z,33.37
2022-08-23T17:12:40.897Z,33.27
2022-08-23T17:15:10.821Z,33.58
2022-08-23T17:17:39.921Z,33.77
2022-08-23T17:20:08.636Z,34.05
2022-08-23T17:22:36.347Z,34.59
2022-08-23T17:25:05.056Z,34.62
2022-08-23T17:27:33.266Z,34.75
2022-08-23T17:30:01.282Z,34.67
2022-08-23T17:32:29.563Z,34.75
2022-08-23T17:34:58.696Z,35.22
2022-08-23T17:37:27.105Z,35.05
2022-08-23T17:39:54.815Z,35.67
2022-08-23T17:42:22.728Z,35.48
2022-08-23T17:44:50.444Z,36.06
2022-08-23T17:47:19.353Z,36.14
2022-08-23T17:49:49.862Z,36.24
2022-08-23T17:52:19.372Z,36.73
2022-08-23T17:54:46.993Z,37.01
2022-08-23T17:57:14.995Z,37.30
2022-08-23T17:59:43.709Z,37.60
2022-08-23T18:02:11.516Z,37.47
2022-08-23T18:04:39.320Z,38.04
2022-08-23T18:07:07.441Z,38.18
2022-08-23T18:09:41.246Z,38.52
2022-08-23T18:12:16.083Z,38.98
2022-08-23T18:14:43.871Z,39.22
2022-08-23T18:17:11.584Z,39.39
2022-08-23T18:19:39.312Z,39.41
2022-08-23T18:22:07.003Z,39.82
2022-08-23T18:24:36.219Z,39.89
2022-08-23T18:27:21.719Z,40.82
2022-08-23T18:29:51.511Z,41.20
2022-08-23T18:32:20.558Z,41.34
2022-08-23T18:34:48.363Z,41.94
2022-08-23T18:37:17.264Z,42.29
2022-08-23T18:39:46.314Z,42.36
2022-08-23T18:42:14.594Z,42.84
2022-08-23T18:44:42.446Z,43.06
2022-08-23T18:47:10.253Z,43.37
2022-08-23T18:49:38.629Z,43.87
2022-08-23T18:52:07.442Z,44.26
2022-08-23T18:54:35.551Z,44.26
2022-08-23T18:57:05.055Z,44.54
2022-08-23T18:59:32.967Z,44.86
2022-08-23T19:02:01.015Z,45.38
2022-08-23T19:04:30.097Z,45.46
2022-08-23T19:06:58.310Z,45.70
2022-08-23T19:09:26.112Z,46.41
2022-08-23T19:11:53.921Z,46.72
2022-08-23T19:14:23.044Z,46.71
2022-08-23T19:16:50.980Z,46.94
2022-08-23T19:19:19.439Z,47.43
2022-08-23T19:21:47.173Z,47.61
2022-08-23T19:24:14.976Z,48.03
2022-08-23T19:26:47.313Z,48.55
2022-08-23T19:29:15.952Z,48.75
2022-08-23T19:31:47.918Z,48.99
2022-08-23T19:34:16.738Z,49.05
2022-08-23T19:36:48.326Z,49.14
2022-08-23T19:39:18.967Z,49.44
2022-08-23T19:41:48.432Z,49.38
2022-08-23T19:44:17.677Z,49.60
2022-08-23T19:46:46.980Z,49.74
2022-08-23T19:49:15.251Z,49.58
2022-08-23T19:51:43.773Z,49.31
2022-08-23T19:54:12.645Z,49.48
2022-08-23T19:56:43.233Z,49.48
2022-08-23T19:59:15.179Z,49.69
2022-08-23T20:01:43.501Z,49.92
2022-08-23T20:04:12.850Z,49.77
2022-08-23T20:06:41.467Z,49.55
2022-08-23T20:09:09.672Z,49.86
2022-08-23T20:11:37.387Z,50.04
2022-08-23T20:14:05.915Z,50.23
2022-08-23T20:16:33.998Z,50.59
2022-08-23T20:19:02.047Z,51.08
2022-08-23T20:21:31.130Z,51.12
2022-08-23T20:24:04.322Z,51.16
2022-08-23T20:26:34.750Z,51.52
2022-08-23T20:29:03.143Z,51.29
2022-08-23T20:31:33.198Z,51.30
2022-08-23T20:34:01.258Z,51.69
2022-08-23T20:36:29.292Z,51.35
2022-08-23T20:39:00.021Z,51.45
2022-08-23T20:41:28.795Z,51.47
2022-08-23T20:43:56.653Z,52.33
2022-08-23T20:46:24.968Z,51.83
2022-08-23T20:48:53.460Z,52.13
2022-08-23T20:51:22.265Z,52.01
2022-08-23T20:53:50.570Z,52.27
2022-08-23T20:56:20.689Z,52.98
2022-08-23T20:58:48.423Z,53.01
2022-08-23T21:01:17.158Z,53.02
2022-08-23T21:03:45.547Z,53.15
2022-08-23T21:06:20.152Z,53.37
2022-08-23T21:08:50.367Z,53.10
2022-08-23T21:11:23.748Z,53.35
2022-08-23T21:13:58.633Z,53.06
2022-08-23T21:16:27.233Z,53.21
2022-08-23T21:18:56.814Z,53.09
2022-08-23T21:21:25.301Z,53.11
2022-08-23T21:23:53.662Z,53.49
2022-08-23T21:26:23.417Z,53.44
2022-08-23T21:28:51.926Z,53.72
2022-08-23T21:31:22.402Z,54.08
2022-08-23T21:33:50.450Z,54.10
2022-08-23T21:36:19.088Z,54.33
2022-08-23T21:38:47.273Z,54.16
2022-08-23T21:41:34.594Z,54.69
2022-08-23T21:44:03.959Z,54.82
2022-08-23T21:46:31.773Z,54.68
2022-08-23T21:49:00.317Z,55.01
2022-08-23T21:51:28.230Z,55.39
2022-08-23T21:53:56.335Z,55.21
2022-08-23T21:56:24.150Z,55.21
2022-08-23T21:58:59.160Z,55.19
2022-08-23T22:01:27.016Z,55.85
2022-08-23T22:03:57.036Z,55.73
2022-08-23T22:06:25.590Z,55.82
2022-08-23T22:08:53.317Z,56.50
2022-08-23T22:11:22.626Z,56.53
2022-08-23T22:13:51.530Z,56.58
2022-08-23T22:16:21.074Z,57.09
2022-08-23T22:18:49.246Z,57.08
2022-08-23T22:21:16.957Z,57.61
2022-08-23T22:23:44.862Z,57.57
2022-08-23T22:26:14.187Z,57.48
2022-08-23T22:28:44.590Z,57.36
2022-08-23T22:31:14.491Z,57.38
2022-08-23T22:33:45.134Z,57.60
2022-08-23T22:36:16.446Z,57.81
2022-08-23T22:38:44.467Z,57.96
2022-08-23T22:41:15.553Z,58.22
2022-08-23T22:43:43.354Z,58.20
2022-08-23T22:46:11.780Z,58.32
2022-08-23T22:48:45.978Z,58.25
2022-08-23T22:51:15.106Z,58.17
2022-08-23T22:53:44.804Z,58.06
2022-08-23T22:56:14.321Z,58.19
2022-08-23T22:58:42.023Z,58.09
2022-08-23T23:01:13.224Z,58.34
2022-08-23T23:03:41.645Z,58.69
2022-08-23T23:06:11.830Z,58.88
2022-08-23T23:08:39.676Z,58.52
2022-08-23T23:11:10.091Z,58.99
2022-08-23T23:13:38.838Z,58.60
2022-08-23T23:16:09.224Z,58.91
2022-08-23T23:18:37.316Z,58.92
2022-08-23T23:21:05.118Z,59.38
2022-08-23T23:23:34.845Z,59.23
2022-08-23T23:26:03.649Z,59.44
2022-08-23T23:28:32.102Z,59.77
2022-08-23T23:30:59.822Z,59.70
2022-08-23T23:33:27.976Z,60.33
2022-08-23T23:35:56.991Z,60.43
2022-08-23T23:38:24.901Z,60.42
2022-08-23T23:40:54.023Z,60.68
2022-08-23T23:43:21.717Z,60.67
2022-08-23T23:45:49.307Z,60.73
2022-08-23T23:48:24.939Z,60.66
2022-08-23T23:50:52.662Z,60.69
2022-08-23T23:53:20.266Z,60.54
2022-08-23T23:55:48.707Z,60.92
2022-08-23T23:58:18.083Z,61.34
